sensor_id;sensor_type;location;lat;lon;timestamp;temperature;humidity
70366;DHT22;57787;48.216;12.396;2023-02-11T00:00:34;-3.40;87.30
70366;DHT22;57787;48.216;12.396;2023-02-11T00:03:04;-3.40;86.80
70366;DHT22;57787;48.216;12.396;2023-02-11T00:05:33;-3.40;86.80
70366;DHT22;57787;48.216;12.396;2023-02-11T00:08:01;-3.40;86.80
70366;DHT22;57787;48.216;12.396;2023-02-11T00:10:28;-3.50;87.00
70366;DHT22;57787;48.216;12.396;2023-02-11T00:12:56;-3.50;86.50
70366;DHT22;57787;48.216;12.396;2023-02-11T00:15:26;-3.50;86.50
70366;DHT22;57787;48.216;12.396;2023-02-11T00:17:53;-3.50;86.90
70366;DHT22;57787;48.216;12.396;2023-02-11T00:20:21;-3.60;86.40
70366;DHT22;57787;48.216;12.396;2023-02-11T00:22:48;-3.60;86.30
70366;DHT22;57787;48.216;12.396;2023-02-11T00:25:17;-3.70;86.00
70366;DHT22;57787;48.216;12.396;2023-02-11T00:27:46;-3.70;86.00
70366;DHT22;57787;48.216;12.396;2023-02-11T00:30:14;-3.80;86.10
70366;DHT22;57787;48.216;12.396;2023-02-11T00:32:43;-3.80;85.90
70366;DHT22;57787;48.216;12.396;2023-02-11T00:35:10;-3.80;86.10
70366;DHT22;57787;48.216;12.396;2023-02-11T00:37:39;-3.80;86.30
70366;DHT22;57787;48.216;12.396;2023-02-11T00:40:07;-3.90;86.00
70366;DHT22;57787;48.216;12.396;2023-02-11T00:42:34;-3.90;86.20
70366;DHT22;57787;48.216;12.396;2023-02-11T00:45:05;-3.90;86.10
70366;DHT22;57787;48.216;12.396;2023-02-11T00:47:34;-3.90;85.80
70366;DHT22;57787;48.216;12.396;2023-02-11T00:50:02;-4.00;86.20
70366;DHT22;57787;48.216;12.396;2023-02-11T00:52:33;-4.00;86.00
70366;DHT22;57787;48.216;12.396;2023-02-11T00:55:00;-4.00;86.50
70366;DHT22;57787;48.216;12.396;2023-02-11T00:57:28;-4.10;86.40
70366;DHT22;57787;48.216;12.396;2023-02-11T01:00:05;-4.10;86.00
70366;DHT22;57787;48.216;12.396;2023-02-11T01:02:33;-4.20;85.70
70366;DHT22;57787;48.216;12.396;2023-02-11T01:05:01;-4.20;85.70
70366;DHT22;57787;48.216;12.396;2023-02-11T01:07:31;-4.30;85.90
70366;DHT22;57787;48.216;12.396;2023-02-11T01:09:59;-4.30;85.70
70366;DHT22;57787;48.216;12.396;2023-02-11T01:12:27;-4.40;85.80
70366;DHT22;57787;48.216;12.396;2023-02-11T01:14:55;-4.30;86.00
70366;DHT22;57787;48.216;12.396;2023-02-11T01:17:22;-4.40;86.30
70366;DHT22;57787;48.216;12.396;2023-02-11T01:19:49;-4.40;86.10
70366;DHT22;57787;48.216;12.396;2023-02-11T01:22:17;-4.40;86.10
70366;DHT22;57787;48.216;12.396;2023-02-11T01:24:45;-4.40;86.30
70366;DHT22;57787;48.216;12.396;2023-02-11T01:27:15;-4.50;86.00
70366;DHT22;57787;48.216;12.396;2023-02-11T01:29:43;-4.50;86.00
70366;DHT22;57787;48.216;12.396;2023-02-11T01:32:10;-4.50;85.80
70366;DHT22;57787;48.216;12.396;2023-02-11T01:34:38;-4.50;86.20
70366;DHT22;57787;48.216;12.396;2023-02-11T01:37:07;-4.50;86.50
70366;DHT22;57787;48.216;12.396;2023-02-11T01:39:38;-4.60;86.20
70366;DHT22;57787;48.216;12.396;2023-02-11T01:42:06;-4.60;86.10
70366;DHT22;57787;48.216;12.396;2023-02-11T01:44:36;-4.60;85.90
70366;DHT22;57787;48.216;12.396;2023-02-11T01:47:09;-4.70;85.60
70366;DHT22;57787;48.216;12.396;2023-02-11T01:49:40;-4.70;86.00
70366;DHT22;57787;48.216;12.396;2023-02-11T01:52:13;-4.70;86.30
70366;DHT22;57787;48.216;12.396;2023-02-11T01:54:45;-4.70;86.00
70366;DHT22;57787;48.216;12.396;2023-02-11T01:57:33;-4.70;85.80
70366;DHT22;57787;48.216;12.396;2023-02-11T02:07:55;-4.80;86.30
70366;DHT22;57787;48.216;12.396;2023-02-11T02:10:27;-4.80;86.80
70366;DHT22;57787;48.216;12.396;2023-02-11T02:12:55;-4.80;86.70
70366;DHT22;57787;48.216;12.396;2023-02-11T02:15:24;-4.90;86.50
70366;DHT22;57787;48.216;12.396;2023-02-11T02:17:56;-4.80;86.50
70366;DHT22;57787;48.216;12.396;2023-02-11T02:20:36;-4.90;86.80
70366;DHT22;57787;48.216;12.396;2023-02-11T02:23:19;-4.90;86.60
70366;DHT22;57787;48.216;12.396;2023-02-11T02:28:48;-4.80;87.10
70366;DHT22;57787;48.216;12.396;2023-02-11T02:36:54;-4.90;86.90
70366;DHT22;57787;48.216;12.396;2023-02-11T02:39:26;-4.90;86.70
70366;DHT22;57787;48.216;12.396;2023-02-11T02:41:58;-4.90;87.20
70366;DHT22;57787;48.216;12.396;2023-02-11T02:44:25;-4.90;87.20
70366;DHT22;57787;48.216;12.396;2023-02-11T02:46:53;-4.80;87.20
70366;DHT22;57787;48.216;12.396;2023-02-11T02:49:22;-4.80;87.40
70366;DHT22;57787;48.216;12.396;2023-02-11T02:54:24;-4.80;87.40
70366;DHT22;57787;48.216;12.396;2023-02-11T03:07:24;-4.80;87.80
70366;DHT22;57787;48.216;12.396;2023-02-11T03:09:57;-4.80;87.70
70366;DHT22;57787;48.216;12.396;2023-02-11T03:12:25;-4.80;87.90
70366;DHT22;57787;48.216;12.396;2023-02-11T03:14:55;-4.70;88.20
70366;DHT22;57787;48.216;12.396;2023-02-11T03:17:23;-4.70;88.20
70366;DHT22;57787;48.216;12.396;2023-02-11T03:19:53;-4.60;88.50
70366;DHT22;57787;48.216;12.396;2023-02-11T03:22:24;-4.60;88.90
70366;DHT22;57787;48.216;12.396;2023-02-11T03:24:52;-4.50;89.10
70366;DHT22;57787;48.216;12.396;2023-02-11T03:30:20;-4.40;88.70
70366;DHT22;57787;48.216;12.396;2023-02-11T03:32:54;-4.40;88.80
70366;DHT22;57787;48.216;12.396;2023-02-11T03:38:09;-4.40;88.20
70366;DHT22;57787;48.216;12.396;2023-02-11T03:40:41;-4.40;88.50
70366;DHT22;57787;48.216;12.396;2023-02-11T03:43:13;-4.40;88.40
70366;DHT22;57787;48.216;12.396;2023-02-11T03:45:48;-4.30;88.50
70366;DHT22;57787;48.216;12.396;2023-02-11T03:48:22;-4.30;88.60
70366;DHT22;57787;48.216;12.396;2023-02-11T03:50:53;-4.20;88.70
70366;DHT22;57787;48.216;12.396;2023-02-11T03:53:23;-4.20;88.80
70366;DHT22;57787;48.216;12.396;2023-02-11T03:55:54;-4.10;88.90
70366;DHT22;57787;48.216;12.396;2023-02-11T03:58:24;-4.00;89.00
70366;DHT22;57787;48.216;12.396;2023-02-11T04:00:52;-3.90;89.00
70366;DHT22;57787;48.216;12.396;2023-02-11T04:03:20;-3.90;89.20
70366;DHT22;57787;48.216;12.396;2023-02-11T04:05:48;-3.80;89.10
70366;DHT22;57787;48.216;12.396;2023-02-11T04:08:16;-3.70;88.90
70366;DHT22;57787;48.216;12.396;2023-02-11T04:10:44;-3.70;88.50
70366;DHT22;57787;48.216;12.396;2023-02-11T04:13:11;-3.60;88.40
70366;DHT22;57787;48.216;12.396;2023-02-11T04:15:39;-3.60;87.90
70366;DHT22;57787;48.216;12.396;2023-02-11T04:18:07;-3.60;87.80
70366;DHT22;57787;48.216;12.396;2023-02-11T04:20:35;-3.60;87.50
70366;DHT22;57787;48.216;12.396;2023-02-11T04:23:05;-3.60;87.30
70366;DHT22;57787;48.216;12.396;2023-02-11T04:25:33;-3.60;87.20
70366;DHT22;57787;48.216;12.396;2023-02-11T04:28:01;-3.60;87.00
70366;DHT22;57787;48.216;12.396;2023-02-11T04:30:31;-3.60;86.30
70366;DHT22;57787;48.216;12.396;2023-02-11T04:32:59;-3.60;86.10
70366;DHT22;57787;48.216;12.396;2023-02-11T04:35:28;-3.70;86.00
70366;DHT22;57787;48.216;12.396;2023-02-11T04:37:56;-3.70;86.30
70366;DHT22;57787;48.216;12.396;2023-02-11T04:40:25;-3.70;85.70
70366;DHT22;57787;48.216;12.396;2023-02-11T04:42:53;-3.80;85.50
70366;DHT22;57787;48.216;12.396;2023-02-11T04:45:20;-3.80;85.70
70366;DHT22;57787;48.216;12.396;2023-02-11T04:47:49;-3.90;86.00
70366;DHT22;57787;48.216;12.396;2023-02-11T04:50:18;-3.90;85.90
70366;DHT22;57787;48.216;12.396;2023-02-11T04:52:46;-3.90;86.10
70366;DHT22;57787;48.216;12.396;2023-02-11T04:55:14;-3.90;85.70
70366;DHT22;57787;48.216;12.396;2023-02-11T04:57:41;-4.00;85.60
70366;DHT22;57787;48.216;12.396;2023-02-11T05:00:09;-4.00;86.00
70366;DHT22;57787;48.216;12.396;2023-02-11T05:02:39;-4.00;85.90
70366;DHT22;57787;48.216;12.396;2023-02-11T05:05:07;-4.00;86.00
70366;DHT22;57787;48.216;12.396;2023-02-11T05:07:34;-4.10;86.00
70366;DHT22;57787;48.216;12.396;2023-02-11T05:10:02;-4.10;86.10
70366;DHT22;57787;48.216;12.396;2023-02-11T05:12:30;-4.10;85.90
70366;DHT22;57787;48.216;12.396;2023-02-11T05:14:58;-4.10;86.10
70366;DHT22;57787;48.216;12.396;2023-02-11T05:17:27;-4.10;85.90
70366;DHT22;57787;48.216;12.396;2023-02-11T05:19:55;-4.10;85.90
70366;DHT22;57787;48.216;12.396;2023-02-11T05:22:23;-4.10;85.80
70366;DHT22;57787;48.216;12.396;2023-02-11T05:24:51;-4.00;85.90
70366;DHT22;57787;48.216;12.396;2023-02-11T05:27:20;-3.90;86.30
70366;DHT22;57787;48.216;12.396;2023-02-11T05:29:47;-3.90;86.80
70366;DHT22;57787;48.216;12.396;2023-02-11T05:32:15;-3.80;86.80
70366;DHT22;57787;48.216;12.396;2023-02-11T05:34:44;-3.70;86.90
70366;DHT22;57787;48.216;12.396;2023-02-11T05:37:13;-3.60;86.80
70366;DHT22;57787;48.216;12.396;2023-02-11T05:39:41;-3.60;86.50
70366;DHT22;57787;48.216;12.396;2023-02-11T05:42:11;-3.50;86.10
70366;DHT22;57787;48.216;12.396;2023-02-11T05:44:39;-3.60;85.70
70366;DHT22;57787;48.216;12.396;2023-02-11T05:47:07;-3.60;85.80
70366;DHT22;57787;48.216;12.396;2023-02-11T05:49:36;-3.50;85.60
70366;DHT22;57787;48.216;12.396;2023-02-11T05:52:04;-3.50;85.60
70366;DHT22;57787;48.216;12.396;2023-02-11T05:54:33;-3.50;85.30
70366;DHT22;57787;48.216;12.396;2023-02-11T05:57:01;-3.50;85.50
70366;DHT22;57787;48.216;12.396;2023-02-11T05:59:30;-3.50;85.50
70366;DHT22;57787;48.216;12.396;2023-02-11T06:01:58;-3.40;85.70
70366;DHT22;57787;48.216;12.396;2023-02-11T06:04:26;-3.40;85.80
70366;DHT22;57787;48.216;12.396;2023-02-11T06:06:55;-3.40;85.70
70366;DHT22;57787;48.216;12.396;2023-02-11T06:09:25;-3.30;85.70
70366;DHT22;57787;48.216;12.396;2023-02-11T06:11:55;-3.30;85.70
70366;DHT22;57787;48.216;12.396;2023-02-11T06:14:23;-3.20;85.60
70366;DHT22;57787;48.216;12.396;2023-02-11T06:16:53;-3.10;85.40
70366;DHT22;57787;48.216;12.396;2023-02-11T06:19:20;-3.10;85.30
70366;DHT22;57787;48.216;12.396;2023-02-11T06:21:49;-3.00;85.30
70366;DHT22;57787;48.216;12.396;2023-02-11T06:24:20;-2.90;84.60
70366;DHT22;57787;48.216;12.396;2023-02-11T06:27:08;-2.80;84.70
70366;DHT22;57787;48.216;12.396;2023-02-11T06:29:35;-2.70;84.20
70366;DHT22;57787;48.216;12.396;2023-02-11T06:32:03;-2.60;83.90
70366;DHT22;57787;48.216;12.396;2023-02-11T06:34:31;-2.60;83.50
70366;DHT22;57787;48.216;12.396;2023-02-11T06:36:59;-2.50;83.10
70366;DHT22;57787;48.216;12.396;2023-02-11T06:39:28;-2.40;82.80
70366;DHT22;57787;48.216;12.396;2023-02-11T06:41:56;-2.40;82.80
70366;DHT22;57787;48.216;12.396;2023-02-11T06:44:25;-2.40;82.20
70366;DHT22;57787;48.216;12.396;2023-02-11T06:46:53;-2.40;81.90
70366;DHT22;57787;48.216;12.396;2023-02-11T06:49:20;-2.30;82.10
70366;DHT22;57787;48.216;12.396;2023-02-11T06:51:50;-2.30;81.90
70366;DHT22;57787;48.216;12.396;2023-02-11T06:54:19;-2.20;81.70
70366;DHT22;57787;48.216;12.396;2023-02-11T06:56:46;-2.20;82.70
70366;DHT22;57787;48.216;12.396;2023-02-11T06:59:17;-2.10;82.90
70366;DHT22;57787;48.216;12.396;2023-02-11T07:01:47;-2.10;83.10
70366;DHT22;57787;48.216;12.396;2023-02-11T07:04:15;-2.10;82.90
70366;DHT22;57787;48.216;12.396;2023-02-11T07:06:43;-2.00;83.10
70366;DHT22;57787;48.216;12.396;2023-02-11T07:09:11;-2.00;83.50
70366;DHT22;57787;48.216;12.396;2023-02-11T07:11:39;-1.90;83.90
70366;DHT22;57787;48.216;12.396;2023-02-11T07:14:06;-1.90;84.00
70366;DHT22;57787;48.216;12.396;2023-02-11T07:16:37;-1.90;84.30
70366;DHT22;57787;48.216;12.396;2023-02-11T07:19:05;-1.90;84.10
70366;DHT22;57787;48.216;12.396;2023-02-11T07:21:34;-1.90;84.30
70366;DHT22;57787;48.216;12.396;2023-02-11T07:24:06;-1.80;84.10
70366;DHT22;57787;48.216;12.396;2023-02-11T07:26:37;-1.80;84.00
70366;DHT22;57787;48.216;12.396;2023-02-11T07:29:09;-1.80;84.10
70366;DHT22;57787;48.216;12.396;2023-02-11T07:31:36;-1.70;84.00
70366;DHT22;57787;48.216;12.396;2023-02-11T07:34:04;-1.70;83.90
70366;DHT22;57787;48.216;12.396;2023-02-11T07:36:31;-1.70;83.20
70366;DHT22;57787;48.216;12.396;2023-02-11T07:39:00;-1.60;82.40
70366;DHT22;57787;48.216;12.396;2023-02-11T07:41:27;-1.50;81.90
70366;DHT22;57787;48.216;12.396;2023-02-11T07:43:56;-1.40;81.50
70366;DHT22;57787;48.216;12.396;2023-02-11T07:46:25;-1.30;81.10
70366;DHT22;57787;48.216;12.396;2023-02-11T07:48:53;-1.20;81.30
70366;DHT22;57787;48.216;12.396;2023-02-11T07:51:22;-1.10;80.90
70366;DHT22;57787;48.216;12.396;2023-02-11T07:53:50;-0.90;81.30
70366;DHT22;57787;48.216;12.396;2023-02-11T07:56:18;-0.70;82.10
70366;DHT22;57787;48.216;12.396;2023-02-11T07:58:47;-0.60;80.70
70366;DHT22;57787;48.216;12.396;2023-02-11T08:01:19;-0.40;80.00
70366;DHT22;57787;48.216;12.396;2023-02-11T08:03:49;-0.20;79.50
70366;DHT22;57787;48.216;12.396;2023-02-11T08:06:17;0.00;78.60
70366;DHT22;57787;48.216;12.396;2023-02-11T08:08:47;0.00;77.80
70366;DHT22;57787;48.216;12.396;2023-02-11T08:11:22;0.10;76.60
70366;DHT22;57787;48.216;12.396;2023-02-11T08:13:50;0.20;74.30
70366;DHT22;57787;48.216;12.396;2023-02-11T08:16:22;0.30;74.50
70366;DHT22;57787;48.216;12.396;2023-02-11T08:18:51;0.40;72.70
70366;DHT22;57787;48.216;12.396;2023-02-11T08:21:19;0.60;73.00
70366;DHT22;57787;48.216;12.396;2023-02-11T08:23:51;0.70;72.60
70366;DHT22;57787;48.216;12.396;2023-02-11T08:26:27;0.80;71.90
70366;DHT22;57787;48.216;12.396;2023-02-11T08:29:00;0.80;72.20
70366;DHT22;57787;48.216;12.396;2023-02-11T08:31:38;0.80;71.50
70366;DHT22;57787;48.216;12.396;2023-02-11T08:34:09;0.80;71.30
70366;DHT22;57787;48.216;12.396;2023-02-11T08:36:42;0.80;71.20
70366;DHT22;57787;48.216;12.396;2023-02-11T08:39:17;0.80;71.50
70366;DHT22;57787;48.216;12.396;2023-02-11T08:41:48;0.80;70.90
70366;DHT22;57787;48.216;12.396;2023-02-11T08:44:17;0.80;70.70
70366;DHT22;57787;48.216;12.396;2023-02-11T08:46:46;0.80;71.00
70366;DHT22;57787;48.216;12.396;2023-02-11T08:49:14;0.90;70.40
70366;DHT22;57787;48.216;12.396;2023-02-11T08:51:43;1.00;70.10
70366;DHT22;57787;48.216;12.396;2023-02-11T08:54:13;1.00;70.00
70366;DHT22;57787;48.216;12.396;2023-02-11T08:56:41;1.20;69.80
70366;DHT22;57787;48.216;12.396;2023-02-11T08:59:11;1.20;69.00
70366;DHT22;57787;48.216;12.396;2023-02-11T09:01:39;1.30;69.00
70366;DHT22;57787;48.216;12.396;2023-02-11T09:04:08;1.40;68.90
70366;DHT22;57787;48.216;12.396;2023-02-11T09:06:36;1.50;68.60
70366;DHT22;57787;48.216;12.396;2023-02-11T09:09:04;1.60;67.30
70366;DHT22;57787;48.216;12.396;2023-02-11T09:11:33;1.80;67.40
70366;DHT22;57787;48.216;12.396;2023-02-11T09:14:01;1.80;67.30
70366;DHT22;57787;48.216;12.396;2023-02-11T09:16:31;1.90;67.90
70366;DHT22;57787;48.216;12.396;2023-02-11T09:18:59;1.90;67.40
70366;DHT22;57787;48.216;12.396;2023-02-11T09:21:27;1.90;67.50
70366;DHT22;57787;48.216;12.396;2023-02-11T09:23:55;2.00;67.30
70366;DHT22;57787;48.216;12.396;2023-02-11T09:26:33;2.10;65.70
70366;DHT22;57787;48.216;12.396;2023-02-11T09:29:01;2.20;65.90
70366;DHT22;57787;48.216;12.396;2023-02-11T09:31:32;2.20;65.20
70366;DHT22;57787;48.216;12.396;2023-02-11T09:34:01;2.20;64.50
70366;DHT22;57787;48.216;12.396;2023-02-11T09:36:33;2.20;64.30
70366;DHT22;57787;48.216;12.396;2023-02-11T09:39:01;2.20;64.30
70366;DHT22;57787;48.216;12.396;2023-02-11T09:44:03;2.40;64.50
70366;DHT22;57787;48.216;12.396;2023-02-11T09:46:37;2.50;63.80
70366;DHT22;57787;48.216;12.396;2023-02-11T09:49:06;2.60;63.40
70366;DHT22;57787;48.216;12.396;2023-02-11T09:51:40;2.80;63.40
70366;DHT22;57787;48.216;12.396;2023-02-11T09:54:12;2.90;62.60
70366;DHT22;57787;48.216;12.396;2023-02-11T09:56:41;3.00;63.10
70366;DHT22;57787;48.216;12.396;2023-02-11T09:59:14;3.20;63.00
70366;DHT22;57787;48.216;12.396;2023-02-11T10:01:46;3.30;62.90
70366;DHT22;57787;48.216;12.396;2023-02-11T10:07:12;3.70;62.30
70366;DHT22;57787;48.216;12.396;2023-02-11T10:10:03;3.90;61.60
70366;DHT22;57787;48.216;12.396;2023-02-11T10:22:34;5.20;59.40
70366;DHT22;57787;48.216;12.396;2023-02-11T10:25:20;5.50;60.30
70366;DHT22;57787;48.216;12.396;2023-02-11T10:27:48;5.60;57.70
70366;DHT22;57787;48.216;12.396;2023-02-11T10:30:27;5.60;55.70
70366;DHT22;57787;48.216;12.396;2023-02-11T10:32:59;5.60;55.90
70366;DHT22;57787;48.216;12.396;2023-02-11T10:35:29;5.70;56.50
70366;DHT22;57787;48.216;12.396;2023-02-11T10:37:58;5.80;56.30
70366;DHT22;57787;48.216;12.396;2023-02-11T10:40:26;5.80;56.80
70366;DHT22;57787;48.216;12.396;2023-02-11T10:42:54;5.80;55.60
70366;DHT22;57787;48.216;12.396;2023-02-11T10:45:31;5.90;56.50
70366;DHT22;57787;48.216;12.396;2023-02-11T10:47:59;5.90;56.30
70366;DHT22;57787;48.216;12.396;2023-02-11T10:50:28;6.00;56.80
70366;DHT22;57787;48.216;12.396;2023-02-11T10:53:10;6.10;56.60
70366;DHT22;57787;48.216;12.396;2023-02-11T10:55:37;6.30;57.10
70366;DHT22;57787;48.216;12.396;2023-02-11T10:58:05;6.40;55.60
70366;DHT22;57787;48.216;12.396;2023-02-11T11:00:39;6.60;55.50
70366;DHT22;57787;48.216;12.396;2023-02-11T11:03:17;6.80;55.60
70366;DHT22;57787;48.216;12.396;2023-02-11T11:05:52;7.00;55.20
70366;DHT22;57787;48.216;12.396;2023-02-11T11:11:05;7.20;53.10
70366;DHT22;57787;48.216;12.396;2023-02-11T11:13:38;7.40;53.10
70366;DHT22;57787;48.216;12.396;2023-02-11T11:18:40;7.60;52.80
70366;DHT22;57787;48.216;12.396;2023-02-11T11:21:18;7.60;52.40
70366;DHT22;57787;48.216;12.396;2023-02-11T11:23:57;7.60;52.60
70366;DHT22;57787;48.216;12.396;2023-02-11T11:26:37;7.40;52.00
70366;DHT22;57787;48.216;12.396;2023-02-11T11:29:07;7.40;52.70
70366;DHT22;57787;48.216;12.396;2023-02-11T11:31:44;7.50;53.00
70366;DHT22;57787;48.216;12.396;2023-02-11T11:34:33;7.60;52.60
70366;DHT22;57787;48.216;12.396;2023-02-11T11:37:00;7.60;52.60
70366;DHT22;57787;48.216;12.396;2023-02-11T11:39:35;7.50;52.50
70366;DHT22;57787;48.216;12.396;2023-02-11T11:42:04;7.40;52.70
70366;DHT22;57787;48.216;12.396;2023-02-11T11:44:32;7.30;53.50
70366;DHT22;57787;48.216;12.396;2023-02-11T11:52:34;7.30;54.40
70366;DHT22;57787;48.216;12.396;2023-02-11T11:57:37;7.20;55.00
70366;DHT22;57787;48.216;12.396;2023-02-11T12:00:12;7.20;55.20
70366;DHT22;57787;48.216;12.396;2023-02-11T12:02:55;7.20;55.10
70366;DHT22;57787;48.216;12.396;2023-02-11T12:05:41;7.10;55.10
70366;DHT22;57787;48.216;12.396;2023-02-11T12:08:24;7.10;55.30
70366;DHT22;57787;48.216;12.396;2023-02-11T12:11:08;7.10;54.40
70366;DHT22;57787;48.216;12.396;2023-02-11T12:14:22;7.10;55.30
70366;DHT22;57787;48.216;12.396;2023-02-11T12:21:40;7.20;54.40
70366;DHT22;57787;48.216;12.396;2023-02-11T12:33:34;7.30;55.40
70366;DHT22;57787;48.216;12.396;2023-02-11T12:35:41;7.30;56.10
70366;DHT22;57787;48.216;12.396;2023-02-11T12:38:17;7.30;56.40
70366;DHT22;57787;48.216;12.396;2023-02-11T12:40:53;7.40;55.90
70366;DHT22;57787;48.216;12.396;2023-02-11T12:43:24;7.40;55.10
70366;DHT22;57787;48.216;12.396;2023-02-11T12:51:35;7.50;53.50
70366;DHT22;57787;48.216;12.396;2023-02-11T12:59:42;7.60;54.30
70366;DHT22;57787;48.216;12.396;2023-02-11T13:02:21;7.60;54.50
70366;DHT22;57787;48.216;12.396;2023-02-11T13:04:52;7.60;55.10
70366;DHT22;57787;48.216;12.396;2023-02-11T13:07:31;7.60;53.50
70366;DHT22;57787;48.216;12.396;2023-02-11T13:10:01;7.70;54.00
70366;DHT22;57787;48.216;12.396;2023-02-11T13:12:31;7.70;53.90
70366;DHT22;57787;48.216;12.396;2023-02-11T13:15:18;7.70;54.70
70366;DHT22;57787;48.216;12.396;2023-02-11T13:17:49;7.80;54.20
70366;DHT22;57787;48.216;12.396;2023-02-11T13:22:52;8.00;52.50
70366;DHT22;57787;48.216;12.396;2023-02-11T13:28:08;8.00;50.50
70366;DHT22;57787;48.216;12.396;2023-02-11T13:30:41;8.00;49.90
70366;DHT22;57787;48.216;12.396;2023-02-11T13:33:18;8.00;49.10
70366;DHT22;57787;48.216;12.396;2023-02-11T13:36:09;8.00;49.90
70366;DHT22;57787;48.216;12.396;2023-02-11T13:38:36;8.10;49.90
70366;DHT22;57787;48.216;12.396;2023-02-11T13:46:25;8.30;49.10
70366;DHT22;57787;48.216;12.396;2023-02-11T13:48:54;8.40;48.80
70366;DHT22;57787;48.216;12.396;2023-02-11T13:51:34;8.40;49.10
70366;DHT22;57787;48.216;12.396;2023-02-11T13:54:04;8.40;49.60
70366;DHT22;57787;48.216;12.396;2023-02-11T13:56:38;8.40;47.60
70366;DHT22;57787;48.216;12.396;2023-02-11T14:02:04;8.30;48.10
70366;DHT22;57787;48.216;12.396;2023-02-11T14:05:15;8.20;49.50
70366;DHT22;57787;48.216;12.396;2023-02-11T14:08:24;8.20;49.40
70366;DHT22;57787;48.216;12.396;2023-02-11T14:11:41;8.20;49.90
70366;DHT22;57787;48.216;12.396;2023-02-11T14:17:15;8.10;50.80
70366;DHT22;57787;48.216;12.396;2023-02-11T14:19:44;8.00;49.00
70366;DHT22;57787;48.216;12.396;2023-02-11T14:22:17;8.00;50.10
70366;DHT22;57787;48.216;12.396;2023-02-11T14:24:47;7.90;51.10
70366;DHT22;57787;48.216;12.396;2023-02-11T14:29:59;7.70;51.90
70366;DHT22;57787;48.216;12.396;2023-02-11T14:32:43;7.60;51.20
70366;DHT22;57787;48.216;12.396;2023-02-11T14:35:20;7.50;52.30
70366;DHT22;57787;48.216;12.396;2023-02-11T14:40:30;7.40;54.10
70366;DHT22;57787;48.216;12.396;2023-02-11T14:43:17;7.30;55.60
70366;DHT22;57787;48.216;12.396;2023-02-11T14:45:48;7.30;56.30
70366;DHT22;57787;48.216;12.396;2023-02-11T14:48:17;7.30;55.70
70366;DHT22;57787;48.216;12.396;2023-02-11T14:50:50;7.20;57.20
70366;DHT22;57787;48.216;12.396;2023-02-11T14:53:26;7.10;57.00
70366;DHT22;57787;48.216;12.396;2023-02-11T14:55:54;7.10;57.10
70366;DHT22;57787;48.216;12.396;2023-02-11T14:58:23;7.00;57.20
70366;DHT22;57787;48.216;12.396;2023-02-11T15:00:55;7.00;57.80
70366;DHT22;57787;48.216;12.396;2023-02-11T15:05:57;6.90;57.40
70366;DHT22;57787;48.216;12.396;2023-02-11T15:08:25;6.80;57.80
70366;DHT22;57787;48.216;12.396;2023-02-11T15:10:53;6.80;58.00
70366;DHT22;57787;48.216;12.396;2023-02-11T15:13:22;6.80;57.70
70366;DHT22;57787;48.216;12.396;2023-02-11T15:15:54;6.80;57.20
70366;DHT22;57787;48.216;12.396;2023-02-11T15:18:25;6.80;57.70
70366;DHT22;57787;48.216;12.396;2023-02-11T15:20:54;6.80;59.10
70366;DHT22;57787;48.216;12.396;2023-02-11T15:23:23;6.70;58.80
70366;DHT22;57787;48.216;12.396;2023-02-11T15:25:51;6.70;59.70
70366;DHT22;57787;48.216;12.396;2023-02-11T15:28:23;6.60;60.80
70366;DHT22;57787;48.216;12.396;2023-02-11T15:30:55;6.60;60.10
70366;DHT22;57787;48.216;12.396;2023-02-11T15:33:23;6.60;59.90
70366;DHT22;57787;48.216;12.396;2023-02-11T15:35:57;6.50;60.40
70366;DHT22;57787;48.216;12.396;2023-02-11T15:38:26;6.50;61.40
70366;DHT22;57787;48.216;12.396;2023-02-11T15:41:00;6.40;60.50
70366;DHT22;57787;48.216;12.396;2023-02-11T15:43:47;6.30;60.70
70366;DHT22;57787;48.216;12.396;2023-02-11T15:46:21;6.30;60.40
70366;DHT22;57787;48.216;12.396;2023-02-11T15:48:53;6.20;60.60
70366;DHT22;57787;48.216;12.396;2023-02-11T15:53:58;6.10;60.50
70366;DHT22;57787;48.216;12.396;2023-02-11T15:58:57;5.90;60.80
70366;DHT22;57787;48.216;12.396;2023-02-11T16:01:29;5.90;60.70
70366;DHT22;57787;48.216;12.396;2023-02-11T16:04:00;5.80;61.00
70366;DHT22;57787;48.216;12.396;2023-02-11T16:06:35;5.80;60.70
70366;DHT22;57787;48.216;12.396;2023-02-11T16:09:05;5.70;60.60
70366;DHT22;57787;48.216;12.396;2023-02-11T16:11:59;5.60;61.00
70366;DHT22;57787;48.216;12.396;2023-02-11T16:17:11;5.50;61.10
70366;DHT22;57787;48.216;12.396;2023-02-11T16:19:44;5.40;60.90
70366;DHT22;57787;48.216;12.396;2023-02-11T16:22:15;5.30;61.00
70366;DHT22;57787;48.216;12.396;2023-02-11T16:24:45;5.30;60.80
70366;DHT22;57787;48.216;12.396;2023-02-11T16:27:24;5.20;61.10
70366;DHT22;57787;48.216;12.396;2023-02-11T16:29:53;5.10;61.30
70366;DHT22;57787;48.216;12.396;2023-02-11T16:32:22;5.00;61.90
70366;DHT22;57787;48.216;12.396;2023-02-11T16:34:50;4.90;62.50
70366;DHT22;57787;48.216;12.396;2023-02-11T16:37:18;4.90;63.50
70366;DHT22;57787;48.216;12.396;2023-02-11T16:39:45;4.80;63.60
70366;DHT22;57787;48.216;12.396;2023-02-11T16:42:13;4.80;64.20
70366;DHT22;57787;48.216;12.396;2023-02-11T16:44:41;4.70;64.20
70366;DHT22;57787;48.216;12.396;2023-02-11T16:47:13;4.60;64.60
70366;DHT22;57787;48.216;12.396;2023-02-11T16:49:42;4.60;64.50
70366;DHT22;57787;48.216;12.396;2023-02-11T16:52:13;4.50;64.80
70366;DHT22;57787;48.216;12.396;2023-02-11T16:54:41;4.40;64.80
70366;DHT22;57787;48.216;12.396;2023-02-11T16:57:12;4.40;64.90
70366;DHT22;57787;48.216;12.396;2023-02-11T16:59:41;4.40;65.20
70366;DHT22;57787;48.216;12.396;2023-02-11T17:02:11;4.30;65.20
70366;DHT22;57787;48.216;12.396;2023-02-11T17:04:40;4.30;65.00
70366;DHT22;57787;48.216;12.396;2023-02-11T17:07:08;4.30;65.20
70366;DHT22;57787;48.216;12.396;2023-02-11T17:09:36;4.20;65.70
70366;DHT22;57787;48.216;12.396;2023-02-11T17:12:04;4.20;65.80
70366;DHT22;57787;48.216;12.396;2023-02-11T17:14:32;4.20;65.70
70366;DHT22;57787;48.216;12.396;2023-02-11T17:16:59;4.10;65.60
70366;DHT22;57787;48.216;12.396;2023-02-11T17:19:28;4.10;65.70
70366;DHT22;57787;48.216;12.396;2023-02-11T17:21:56;4.10;65.80
70366;DHT22;57787;48.216;12.396;2023-02-11T17:24:24;4.10;65.80
70366;DHT22;57787;48.216;12.396;2023-02-11T17:26:51;4.10;66.10
70366;DHT22;57787;48.216;12.396;2023-02-11T17:29:20;4.10;66.70
70366;DHT22;57787;48.216;12.396;2023-02-11T17:31:48;4.00;66.30
70366;DHT22;57787;48.216;12.396;2023-02-11T17:34:17;4.10;67.00
70366;DHT22;57787;48.216;12.396;2023-02-11T17:36:46;4.00;66.70
70366;DHT22;57787;48.216;12.396;2023-02-11T17:39:13;4.10;67.30
70366;DHT22;57787;48.216;12.396;2023-02-11T17:41:41;4.00;67.00
70366;DHT22;57787;48.216;12.396;2023-02-11T17:44:09;4.00;66.80
70366;DHT22;57787;48.216;12.396;2023-02-11T17:46:38;4.10;66.90